KCNM/CNM METAR and TAF weather

Enter ICAO airport designator
Station Type Date Time Source
KCNM METAR 2022/06/30 01:53 UTC NOAA

KCNM 300153Z AUTO 14007KT 10SM CLR 31/12 A3010 RMK AO2 SLP135 T03060117


Station Type Date Time Source
KCNM Decoded METAR 2022/06/30 01:53 UTC NOAA

CARLSBAD CAVERN CITY, NM, United States (KCNM) 32-20N 104-16W 985M
Jun 29, 2022 - 09:53 PM EDT / 2022.06.30 0153 UTC
Wind: from the SE (140 degrees) at 8 MPH (7 KT):0
Visibility: 10 mile(s):0
Sky conditions: clear
Temperature: 87.1 F (30.6 C)
Dew Point: 53.1 F (11.7 C)
Relative Humidity: 31%
Pressure (altimeter): 30.1 in. Hg (1019 hPa)
ob: KCNM 300153Z AUTO 14007KT 10SM CLR 31/12 A3010 RMK AO2 SLP135 T03060117
cycle: 2

Station Type Date Time Source
KCNM TAF 2022/06/30 02:03 UTC NOAA

TAF
AMD KCNM 300201Z 3002/3024 16004KT P6SM FEW200
FM301600 16008KT P6SM SCT045 SCT250

Example: see airport list